Time;durP1;ratioP1;P1;durP2;ratioP2;P2;SDS_P1;SDS_P2;PMS_P1;PMS_P2;Temp;Humidity;BMP_temperature;BMP_pressure;BME280_temperature;BME280_humidity;BME280_pressure;Samples;Min_cycle;Max_cycle;Signal;HPM_P1;HPM_P2
2023/06/30 00:02:24;;;;;;;6.97;6.38;;;;;;;15.69;88.42;95129.81;5146695;27;20200;-67
2023/06/30 00:04:51;;;;;;;7.03;6.45;;;;;;;15.62;88.03;95129.31;5142552;27;20256;-67
2023/06/30 00:07:20;;;;;;;7.57;6.95;;;;;;;15.53;88.15;95131.50;5147474;27;20200;-66
2023/06/30 00:09:47;;;;;;;7.47;6.80;;;;;;;15.41;89.29;95135.50;5145862;27;20673;-66
2023/06/30 00:12:14;;;;;;;6.78;6.43;;;;;;;15.34;89.93;95134.19;5146531;27;20206;-66
2023/06/30 00:14:42;;;;;;;7.15;6.47;;;;;;;15.53;89.40;95134.91;5145814;27;20221;-67
2023/06/30 00:17:09;;;;;;;6.88;6.47;;;;;;;15.69;88.16;95145.19;5149941;27;20199;-66
2023/06/30 00:19:35;;;;;;;7.28;6.78;;;;;;;15.68;87.73;95142.72;5148489;27;20251;-67
2023/06/30 00:22:02;;;;;;;6.60;5.95;;;;;;;15.68;88.08;95147.84;5150023;27;20245;-67
2023/06/30 00:24:29;;;;;;;7.60;6.95;;;;;;;15.76;87.65;95138.03;5147961;27;20268;-67
2023/06/30 00:26:55;;;;;;;6.85;6.35;;;;;;;15.76;87.32;95135.47;5148824;27;20225;-67
2023/06/30 00:29:22;;;;;;;6.35;5.85;;;;;;;15.72;87.12;95128.84;5145619;27;20187;-67
2023/06/30 00:31:50;;;;;;;5.75;5.45;;;;;;;15.75;86.78;95133.81;5143616;27;20665;-66
2023/06/30 00:34:17;;;;;;;5.32;5.03;;;;;;;15.71;86.48;95132.31;5143710;27;20225;-67
2023/06/30 00:36:44;;;;;;;6.28;5.95;;;;;;;15.57;86.79;95136.44;5146469;27;20284;-67
2023/06/30 00:39:11;;;;;;;5.50;5.15;;;;;;;15.35;87.20;95117.91;5145351;27;20220;-67
2023/06/30 00:41:37;;;;;;;4.95;4.70;;;;;;;15.54;86.46;95134.00;5145435;27;20619;-67
2023/06/30 00:44:04;;;;;;;5.97;5.55;;;;;;;15.40;87.08;95133.84;5147218;27;20204;-67
2023/06/30 00:46:31;;;;;;;6.72;6.20;;;;;;;15.36;87.83;95134.91;5147219;27;20230;-67
2023/06/30 00:48:59;;;;;;;7.32;6.10;;;;;;;15.52;87.28;95138.38;5148624;27;20231;-67
2023/06/30 00:51:26;;;;;;;5.97;5.50;;;;;;;15.41;88.06;95139.81;5145976;27;20215;-67
2023/06/30 00:53:53;;;;;;;6.80;6.32;;;;;;;15.43;88.14;95133.69;5149568;27;20227;-66
2023/06/30 00:56:20;;;;;;;7.90;5.65;;;;;;;15.39;88.33;95132.19;5144356;27;20199;-67
2023/06/30 00:58:46;;;;;;;6.65;6.18;;;;;;;15.28;88.81;95135.31;5148318;27;21469;-67
2023/06/30 01:01:23;;;;;;;6.35;5.88;;;;;;;14.96;90.84;95128.41;5143494;27;20665;-68
2023/06/30 01:03:56;;;;;;;7.68;6.47;;;;;;;14.94;91.15;95130.22;5145053;27;20203;-67
2023/06/30 01:06:31;;;;;;;6.78;6.10;;;;;;;15.09;90.34;95128.66;5134546;27;20234;-68
2023/06/30 01:09:02;;;;;;;7.75;6.40;;;;;;;15.11;90.25;95134.50;5147424;27;20223;-66
2023/06/30 01:11:29;;;;;;;6.82;6.38;;;;;;;15.14;89.93;95142.03;5146936;27;20196;-67
2023/06/30 01:13:58;;;;;;;6.88;6.38;;;;;;;15.01;90.50;95135.88;5146369;27;20688;-67
2023/06/30 01:16:29;;;;;;;6.65;5.80;;;;;;;15.00;90.40;95134.22;5143926;27;20203;-67
2023/06/30 01:18:58;;;;;;;8.77;6.15;;;;;;;15.06;91.02;95139.88;5146507;27;20215;-67
2023/06/30 01:21:28;;;;;;;6.95;6.30;;;;;;;15.12;90.86;95129.31;5144451;27;20210;-66
2023/06/30 01:23:59;;;;;;;6.55;6.07;;;;;;;15.04;89.98;95125.50;5146359;27;20569;-66
2023/06/30 01:26:26;;;;;;;6.25;5.75;;;;;;;15.07;90.20;95135.59;5146026;27;20737;-67
2023/06/30 01:28:54;;;;;;;8.07;6.15;;;;;;;15.13;89.38;95125.00;5144694;27;20692;-67
2023/06/30 01:31:21;;;;;;;9.48;6.55;;;;;;;15.17;89.31;95121.41;5147876;27;20323;-67
2023/06/30 01:33:48;;;;;;;6.68;6.18;;;;;;;15.18;89.30;95121.31;5147713;27;21193;-67
2023/06/30 01:36:15;;;;;;;5.75;5.45;;;;;;;15.11;89.69;95124.25;5145685;27;20633;-67
2023/06/30 01:38:43;;;;;;;8.35;7.55;;;;;;;14.87;90.53;95128.88;5143387;27;20237;-67
2023/06/30 01:41:11;;;;;;;7.93;7.40;;;;;;;14.71;91.44;95108.34;5145762;27;20271;-66
2023/06/30 01:43:38;;;;;;;7.13;6.45;;;;;;;14.69;91.88;95109.31;5144633;27;20208;-67
2023/06/30 01:46:06;;;;;;;8.25;7.45;;;;;;;14.76;91.56;95111.50;5145551;27;20711;-67
2023/06/30 01:48:33;;;;;;;8.27;7.57;;;;;;;14.82;91.14;95112.94;5142743;27;20204;-67
2023/06/30 01:51:00;;;;;;;8.48;7.53;;;;;;;14.76;90.61;95106.38;5145540;27;20661;-67
2023/06/30 01:53:27;;;;;;;11.48;6.43;;;;;;;14.78;90.23;95108.88;5144347;27;20244;-67
2023/06/30 01:55:55;;;;;;;8.00;7.15;;;;;;;14.63;91.58;95110.44;5144062;27;20692;-67
2023/06/30 01:58:22;;;;;;;7.32;6.72;;;;;;;14.47;92.38;95110.34;5143502;27;20191;-67
2023/06/30 02:00:48;;;;;;;7.35;6.75;;;;;;;14.53;92.46;95109.22;5145915;27;20308;-67
2023/06/30 02:03:15;;;;;;;7.75;7.15;;;;;;;14.58;91.65;95104.72;5142148;27;20231;-67
2023/06/30 02:05:42;;;;;;;7.28;6.78;;;;;;;14.54;91.79;95104.03;5142998;27;20263;-66
2023/06/30 02:08:08;;;;;;;8.65;7.05;;;;;;;14.64;90.83;95101.84;5142385;27;20662;-67
2023/06/30 02:10:35;;;;;;;7.25;6.75;;;;;;;14.61;90.96;95112.22;5144502;27;20226;-66
2023/06/30 02:13:03;;;;;;;6.78;6.38;;;;;;;14.46;91.34;95102.75;5142675;27;20200;-67
2023/06/30 02:15:30;;;;;;;7.43;6.82;;;;;;;14.39;91.88;95109.00;5142920;27;20296;-67
2023/06/30 02:17:56;;;;;;;8.00;7.40;;;;;;;14.27;92.86;95106.16;5143377;27;20239;-66
2023/06/30 02:20:24;;;;;;;6.80;6.30;;;;;;;14.26;93.44;95112.16;5146039;27;20307;-67
2023/06/30 02:22:51;;;;;;;8.93;7.18;;;;;;;14.33;92.60;95112.72;5143222;27;20826;-67
2023/06/30 02:25:18;;;;;;;7.22;6.75;;;;;;;14.20;93.06;95111.63;5142051;27;20745;-66
2023/06/30 02:27:45;;;;;;;8.85;7.30;;;;;;;14.18;93.82;95124.47;5144563;27;20199;-66
2023/06/30 02:30:14;;;;;;;7.60;7.03;;;;;;;14.27;93.85;95116.38;5143233;27;20678;-67
2023/06/30 02:32:41;;;;;;;8.07;7.35;;;;;;;14.40;93.30;95119.16;5144568;27;20192;-67
2023/06/30 02:35:09;;;;;;;9.88;8.68;;;;;;;14.56;92.30;95117.59;5142024;27;20298;-67
2023/06/30 02:37:36;;;;;;;9.27;7.97;;;;;;;14.59;91.36;95117.44;5142133;27;20234;-67
2023/06/30 02:40:04;;;;;;;9.70;8.90;;;;;;;14.60;91.04;95123.34;5141846;27;21740;-67
2023/06/30 02:42:30;;;;;;;9.68;8.88;;;;;;;14.54;91.69;95116.84;5143367;27;20212;-67
2023/06/30 02:44:57;;;;;;;11.25;10.02;;;;;;;14.38;92.35;95112.47;5141231;27;20200;-67
2023/06/30 02:47:25;;;;;;;12.18;10.65;;;;;;;14.29;92.86;95116.31;5141917;27;20203;-66
2023/06/30 02:49:52;;;;;;;13.68;10.43;;;;;;;14.38;92.63;95120.97;5142640;27;20204;-67
2023/06/30 02:52:19;;;;;;;12.05;10.75;;;;;;;14.46;92.09;95112.97;5138683;27;20227;-67
2023/06/30 02:54:45;;;;;;;11.73;10.15;;;;;;;14.41;92.22;95115.75;5143254;27;20587;-67
2023/06/30 02:57:12;;;;;;;10.60;9.60;;;;;;;14.60;91.11;95118.25;5142919;27;20228;-67
2023/06/30 02:59:39;;;;;;;11.15;9.18;;;;;;;14.61;90.61;95112.22;5141137;27;20247;-66
2023/06/30 03:02:06;;;;;;;9.77;8.88;;;;;;;14.57;90.84;95115.84;5144915;27;20252;-66
2023/06/30 03:04:34;;;;;;;10.02;8.80;;;;;;;14.60;90.38;95115.69;5144175;27;20257;-67
2023/06/30 03:07:00;;;;;;;7.70;7.03;;;;;;;14.64;90.12;95106.97;5140822;27;20281;-65
2023/06/30 03:09:27;;;;;;;9.65;9.02;;;;;;;14.58;91.20;95110.69;5142952;27;20284;-66
2023/06/30 03:11:54;;;;;;;9.52;7.80;;;;;;;14.64;90.09;95102.69;5146661;27;20239;-66
2023/06/30 03:14:20;;;;;;;10.73;8.18;;;;;;;14.58;90.93;95104.72;5144606;27;20664;-66
2023/06/30 03:16:47;;;;;;;8.88;8.07;;;;;;;14.70;90.32;95104.13;5144477;27;20245;-67
2023/06/30 03:19:14;;;;;;;8.88;8.10;;;;;;;14.70;90.20;95106.69;5144442;27;20196;-67
2023/06/30 03:21:42;;;;;;;9.27;8.48;;;;;;;14.66;90.47;95105.16;5143406;27;20206;-67
2023/06/30 03:24:09;;;;;;;9.35;8.48;;;;;;;14.71;90.88;95105.78;5142863;27;20193;-67
2023/06/30 03:26:35;;;;;;;7.75;7.05;;;;;;;14.68;90.41;95105.09;5142673;27;20211;-66
2023/06/30 03:29:02;;;;;;;11.57;8.32;;;;;;;14.67;90.13;95100.88;5141505;27;20224;-67
2023/06/30 03:31:29;;;;;;;11.27;8.80;;;;;;;14.69;90.80;95115.25;5143670;27;20252;-66
2023/06/30 03:33:56;;;;;;;25.30;17.20;;;;;;;14.87;90.61;95114.34;5141128;27;20255;-65
2023/06/30 03:36:22;;;;;;;9.98;8.55;;;;;;;16.22;86.14;95109.00;5143606;27;20233;-67
2023/06/30 03:38:50;;;;;;;8.38;7.03;;;;;;;18.57;74.99;95100.16;5143655;27;20235;-66
2023/06/30 03:41:17;;;;;;;6.22;5.70;;;;;;;21.08;65.08;95107.72;5144941;27;20296;-66
2023/06/30 03:43:44;;;;;;;5.97;5.47;;;;;;;23.19;56.76;95105.88;5141967;27;20192;-67
2023/06/30 03:46:11;;;;;;;5.88;5.47;;;;;;;24.58;52.10;95102.63;5143089;27;20196;-66
2023/06/30 03:48:38;;;;;;;25.55;17.85;;;;;;;25.56;48.99;95098.03;5142276;27;20227;-66
2023/06/30 03:51:05;;;;;;;13.75;8.77;;;;;;;26.08;47.16;95098.41;5145486;27;20258;-66
2023/06/30 03:53:31;;;;;;;6.72;6.13;;;;;;;26.28;46.75;95099.13;5147850;27;20200;-67
2023/06/30 03:56:00;;;;;;;13.75;6.40;;;;;;;25.46;47.91;95099.03;5148114;27;20242;-66
2023/06/30 03:58:28;;;;;;;9.13;4.85;;;;;;;24.26;50.96;95103.66;5147210;27;20978;-67
2023/06/30 04:00:55;;;;;;;8.00;5.35;;;;;;;22.97;54.64;95109.41;5149352;27;20216;-67
2023/06/30 04:03:21;;;;;;;11.00;5.97;;;;;;;21.79;58.44;95111.84;5145287;27;20200;-66
2023/06/30 04:05:48;;;;;;;5.93;5.40;;;;;;;20.80;61.82;95109.75;5145368;27;20235;-66
2023/06/30 04:08:15;;;;;;;7.88;6.15;;;;;;;20.21;64.07;95116.63;5148157;27;20638;-66
2023/06/30 04:10:41;;;;;;;6.35;5.70;;;;;;;19.44;67.24;95128.78;5148929;27;20227;-66
2023/06/30 04:13:09;;;;;;;6.88;6.28;;;;;;;18.91;69.49;95120.25;5145752;27;20227;-67
2023/06/30 04:15:36;;;;;;;7.15;5.53;;;;;;;18.76;70.40;95116.13;5147581;27;20643;-67
2023/06/30 04:18:03;;;;;;;8.77;6.03;;;;;;;18.64;70.83;95119.47;5147271;27;20204;-67
2023/06/30 04:20:30;;;;;;;18.08;14.20;;;;;;;18.46;71.01;95118.03;5148458;27;20216;-66
2023/06/30 04:22:56;;;;;;;23.60;17.17;;;;;;;18.15;72.46;95109.69;5149543;27;20231;-66
2023/06/30 04:25:23;;;;;;;8.88;8.30;;;;;;;18.14;72.81;95117.50;5146044;27;20226;-67
2023/06/30 04:27:50;;;;;;;6.35;5.90;;;;;;;18.20;72.79;95117.94;5147647;27;20246;-66
2023/06/30 04:30:18;;;;;;;21.33;12.95;;;;;;;18.28;72.80;95117.47;5145646;27;20240;-66
2023/06/30 04:32:44;;;;;;;30.67;22.45;;;;;;;18.43;72.30;95113.09;5148102;27;20208;-66
2023/06/30 04:35:11;;;;;;;15.05;12.27;;;;;;;18.29;73.14;95108.84;5145120;27;20203;-66
2023/06/30 04:37:40;;;;;;;8.43;7.57;;;;;;;18.41;72.89;95108.03;5146807;27;20215;-66
2023/06/30 04:40:08;;;;;;;6.68;6.13;;;;;;;18.77;71.10;95099.75;5146983;27;20265;-66
2023/06/30 04:42:36;;;;;;;6.22;5.72;;;;;;;18.99;70.12;95107.72;5147339;27;20196;-66
2023/06/30 04:45:02;;;;;;;7.43;5.93;;;;;;;19.19;69.77;95103.81;5145034;27;20199;-67
2023/06/30 04:47:30;;;;;;;8.25;6.43;;;;;;;19.29;69.34;95104.03;5146854;27;20208;-66
2023/06/30 04:49:57;;;;;;;8.05;7.45;;;;;;;19.20;69.48;95100.31;5145241;27;20256;-67
2023/06/30 04:52:24;;;;;;;9.27;8.35;;;;;;;19.12;69.98;95117.19;5147026;27;20276;-66
2023/06/30 04:54:50;;;;;;;7.50;6.85;;;;;;;19.11;70.09;95110.41;5143097;27;20232;-67
2023/06/30 04:57:17;;;;;;;6.70;6.15;;;;;;;19.09;70.17;95107.09;5144398;27;20279;-66
2023/06/30 04:59:44;;;;;;;7.82;6.40;;;;;;;19.08;70.65;95110.59;5146376;27;20753;-66
2023/06/30 05:02:11;;;;;;;7.53;6.63;;;;;;;19.20;70.72;95104.66;5146142;27;20257;-67
2023/06/30 05:04:38;;;;;;;11.75;7.45;;;;;;;19.26;70.16;95102.50;5143064;27;20653;-66
2023/06/30 05:07:05;;;;;;;7.07;6.47;;;;;;;19.33;70.26;95110.59;5144645;27;20622;-66
2023/06/30 05:09:32;;;;;;;7.00;6.60;;;;;;;19.51;69.64;95108.59;5145283;27;20196;-66
2023/06/30 05:11:58;;;;;;;8.18;6.30;;;;;;;19.91;68.08;95101.53;5148901;27;20248;-67
2023/06/30 05:14:25;;;;;;;8.82;5.93;;;;;;;20.34;66.53;95100.13;5145746;27;20256;-66
2023/06/30 05:16:52;;;;;;;6.75;5.82;;;;;;;20.40;65.79;95103.25;5145585;27;20227;-66
2023/06/30 05:19:18;;;;;;;6.20;5.90;;;;;;;20.45;65.73;95107.16;5143124;27;20196;-67
2023/06/30 05:21:46;;;;;;;6.15;5.72;;;;;;;20.50;65.52;95109.41;5147899;27;20255;-66
2023/06/30 05:24:13;;;;;;;6.38;5.88;;;;;;;20.40;65.70;95106.66;5146329;27;20200;-66
2023/06/30 05:26:41;;;;;;;7.32;5.75;;;;;;;20.21;65.83;95099.38;5146803;27;20253;-66
2023/06/30 05:29:09;;;;;;;8.15;5.78;;;;;;;20.31;65.72;95110.69;5144269;27;20241;-66
2023/06/30 05:31:35;;;;;;;7.85;7.20;;;;;;;20.14;66.22;95102.50;5144867;27;20248;-66
2023/06/30 05:34:02;;;;;;;5.65;5.15;;;;;;;20.22;65.91;95111.34;5144376;27;20977;-66
2023/06/30 05:36:30;;;;;;;5.80;5.50;;;;;;;20.38;65.42;95111.94;5145261;27;20647;-68
2023/06/30 05:38:58;;;;;;;6.88;6.30;;;;;;;20.36;65.42;95112.94;5144883;27;20196;-67
2023/06/30 05:41:24;;;;;;;7.05;6.55;;;;;;;20.62;65.56;95108.53;5145367;27;20720;-67
2023/06/30 05:43:51;;;;;;;7.53;6.78;;;;;;;20.87;64.19;95117.88;5144922;27;20625;-66
2023/06/30 05:46:18;;;;;;;6.82;6.18;;;;;;;21.57;62.39;95113.50;5141398;27;20284;-65
2023/06/30 05:48:44;;;;;;;6.65;5.88;;;;;;;22.53;59.35;95120.72;5145560;27;20210;-66
2023/06/30 05:51:11;;;;;;;7.05;6.32;;;;;;;23.60;55.81;95116.22;5144880;27;20219;-66
2023/06/30 05:53:38;;;;;;;5.90;5.15;;;;;;;25.52;50.15;95109.69;5146221;27;20196;-67
2023/06/30 05:56:06;;;;;;;6.20;5.57;;;;;;;27.57;44.61;95116.94;5146389;27;20250;-67
2023/06/30 05:58:32;;;;;;;6.65;5.90;;;;;;;29.24;40.96;95120.50;5147039;27;20272;-68
2023/06/30 06:00:59;;;;;;;9.55;5.38;;;;;;;30.52;37.87;95113.50;5144434;27;20270;-68
2023/06/30 06:03:30;;;;;;;8.82;7.95;;;;;;;30.73;37.22;95114.53;5146167;27;20291;-68
2023/06/30 06:05:57;;;;;;;6.43;6.03;;;;;;;30.24;38.29;95116.56;5140015;27;20231;-68
2023/06/30 06:08:23;;;;;;;13.90;10.57;;;;;;;29.50;39.62;95115.09;5145217;27;20227;-69
2023/06/30 06:10:50;;;;;;;10.95;6.60;;;;;;;29.14;41.58;95119.84;5145372;27;20268;-68
2023/06/30 06:16:15;;;;;;;8.52;7.40;;;;;;;30.24;38.54;95116.56;5079273;28;22171;-69
2023/06/30 06:18:42;;;;;;;15.73;9.45;;;;;;;31.09;37.15;95113.97;5077430;28;21362;-69
2023/06/30 06:21:08;;;;;;;5.50;4.97;;;;;;;32.92;33.84;95114.16;5080100;28;20225;-69
2023/06/30 06:23:35;;;;;;;7.32;5.95;;;;;;;35.28;29.86;95101.72;5080083;28;20229;-70
2023/06/30 06:26:02;;;;;;;5.63;5.22;;;;;;;37.93;26.05;95094.28;5079747;28;20198;-69
2023/06/30 06:28:29;;;;;;;6.55;4.95;;;;;;;40.50;22.99;95092.34;5082180;28;20198;-71
2023/06/30 06:30:56;;;;;;;7.65;5.43;;;;;;;42.63;21.10;95091.22;5077048;28;20263;-69
2023/06/30 06:33:24;;;;;;;5.10;4.60;;;;;;;44.68;18.96;95087.97;5076682;28;20233;-70
2023/06/30 06:35:51;;;;;;;5.13;4.60;;;;;;;45.58;17.94;95093.78;5081460;28;20302;-70
2023/06/30 06:38:18;;;;;;;4.93;4.40;;;;;;;46.23;17.24;95081.31;5079854;28;20204;-72
2023/06/30 06:40:45;;;;;;;12.73;4.40;;;;;;;47.01;17.15;95094.97;5077835;28;20214;-71
2023/06/30 06:43:12;;;;;;;4.43;4.13;;;;;;;48.04;15.56;95090.38;5078180;28;20202;-70
2023/06/30 06:45:41;;;;;;;4.45;4.15;;;;;;;48.35;15.05;95086.28;5078862;28;20581;-67
2023/06/30 06:48:20;;;;;;;4.68;3.70;;;;;;;48.68;15.08;95089.94;5080035;28;20198;-67
2023/06/30 06:50:48;;;;;;;4.82;4.32;;;;;;;49.22;14.72;95083.28;5080812;28;20246;-70
2023/06/30 06:53:18;;;;;;;4.65;4.22;;;;;;;48.98;14.29;95088.75;5078610;28;20299;-71
2023/06/30 06:55:45;;;;;;;4.75;4.35;;;;;;;48.77;14.83;95081.16;5082173;28;20286;-71
2023/06/30 06:58:12;;;;;;;4.72;4.40;;;;;;;49.35;14.91;95089.81;5079794;28;20206;-71
2023/06/30 07:00:39;;;;;;;5.50;4.22;;;;;;;49.61;14.55;95069.41;5081127;28;20209;-71
2023/06/30 07:03:05;;;;;;;5.55;4.55;;;;;;;49.96;14.17;95081.50;5078052;28;20594;-70
2023/06/30 07:05:32;;;;;;;4.22;3.97;;;;;;;50.18;13.87;95071.91;5079526;28;20221;-67
2023/06/30 07:08:00;;;;;;;4.47;4.05;;;;;;;50.31;13.79;95082.72;5079782;28;20241;-70
2023/06/30 07:10:27;;;;;;;4.68;4.32;;;;;;;50.45;13.28;95079.22;5082032;28;20209;-70
2023/06/30 07:12:54;;;;;;;4.38;4.07;;;;;;;50.11;13.54;95069.59;5079454;28;20229;-70
2023/06/30 07:15:20;;;;;;;8.57;3.88;;;;;;;50.21;13.75;95061.28;5078860;28;20225;-71
2023/06/30 07:17:47;;;;;;;6.63;4.50;;;;;;;50.27;14.03;95068.19;5080100;28;20709;-70
2023/06/30 07:20:14;;;;;;;5.10;4.45;;;;;;;50.94;13.27;95071.16;5081646;28;20690;-68
2023/06/30 07:22:40;;;;;;;7.55;4.03;;;;;;;51.76;13.05;95064.56;5079081;28;20197;-71
2023/06/30 07:25:09;;;;;;;3.75;3.45;;;;;;;50.72;13.68;95054.84;5078205;28;20251;-70
2023/06/30 07:27:37;;;;;;;10.10;3.80;;;;;;;49.54;13.98;95060.03;5065366;28;20206;-71
2023/06/30 07:30:04;;;;;;;4.85;4.43;;;;;;;49.66;14.32;95063.91;5066384;28;20293;-72
2023/06/30 07:32:33;;;;;;;4.78;4.10;;;;;;;49.00;14.70;95053.38;5065661;28;20255;-71
2023/06/30 07:35:01;;;;;;;9.07;3.88;;;;;;;49.50;14.67;95043.63;5064235;28;20226;-68
2023/06/30 07:37:28;;;;;;;4.90;4.43;;;;;;;50.14;13.85;95052.78;5066394;28;20247;-69
2023/06/30 07:39:55;;;;;;;5.10;4.60;;;;;;;50.60;13.53;95047.25;5065879;28;20229;-70
2023/06/30 07:42:23;;;;;;;4.43;4.18;;;;;;;50.47;13.33;95049.97;5068073;28;21042;-70
2023/06/30 07:44:50;;;;;;;6.40;4.28;;;;;;;47.98;14.22;95056.50;5064027;28;20263;-68
2023/06/30 07:47:17;;;;;;;7.60;4.50;;;;;;;46.62;15.07;95061.81;5067610;28;21493;-67
2023/06/30 07:49:44;;;;;;;6.38;3.50;;;;;;;45.87;15.96;95058.28;5065220;28;20252;-71
2023/06/30 07:52:11;;;;;;;5.63;5.15;;;;;;;46.80;14.84;95050.44;5065623;28;20588;-72
2023/06/30 07:54:37;;;;;;;5.20;3.88;;;;;;;46.68;15.01;95049.97;5065044;28;20221;-71
2023/06/30 07:57:05;;;;;;;5.22;3.70;;;;;;;46.85;15.39;95050.41;5064543;28;20194;-72
2023/06/30 07:59:33;;;;;;;4.43;3.67;;;;;;;46.95;15.26;95046.84;5066032;28;20647;-71
2023/06/30 08:02:00;;;;;;;4.80;3.88;;;;;;;48.38;14.65;95047.94;5067056;28;20230;-68
2023/06/30 08:04:26;;;;;;;3.78;3.50;;;;;;;49.14;13.71;95050.72;5061948;28;20195;-70
2023/06/30 08:06:54;;;;;;;5.90;4.75;;;;;;;48.96;13.91;95047.75;5065862;28;20198;-70
2023/06/30 08:09:21;;;;;;;7.55;3.60;;;;;;;48.66;13.79;95048.16;5062693;28;20204;-68
2023/06/30 08:11:47;;;;;;;5.80;5.20;;;;;;;49.38;14.00;95048.72;5065137;28;20253;-70
2023/06/30 08:14:14;;;;;;;5.60;4.28;;;;;;;50.25;13.48;95048.78;5061991;28;20250;-72
2023/06/30 08:16:42;;;;;;;4.15;3.70;;;;;;;51.32;13.18;95035.59;5066169;28;20711;-71
2023/06/30 08:19:09;;;;;;;3.25;3.00;;;;;;;51.22;12.79;95041.25;5060554;28;20214;-73
2023/06/30 08:21:35;;;;;;;3.25;2.67;;;;;;;50.68;12.86;95032.22;5066883;28;20252;-69
2023/06/30 08:24:02;;;;;;;8.00;3.42;;;;;;;49.45;12.57;95030.25;5063876;28;20267;-72
2023/06/30 08:26:29;;;;;;;4.50;2.55;;;;;;;47.49;13.34;95022.50;5066050;28;20200;-71
2023/06/30 08:28:56;;;;;;;3.28;2.97;;;;;;;46.97;14.99;95018.59;5063639;28;20202;-69
2023/06/30 08:31:22;;;;;;;3.90;2.95;;;;;;;48.45;13.94;95020.63;5064003;28;20210;-64
2023/06/30 08:33:50;;;;;;;10.55;2.75;;;;;;;48.80;12.76;95015.84;5064860;28;20742;-64
2023/06/30 08:36:17;;;;;;;3.25;3.05;;;;;;;48.66;13.21;95005.00;5062181;28;20238;-65
2023/06/30 08:38:44;;;;;;;3.80;2.60;;;;;;;48.34;13.57;95008.38;5063647;28;20695;-65
2023/06/30 08:41:11;;;;;;;3.05;2.70;;;;;;;47.13;13.55;95005.03;5064301;28;20706;-64
2023/06/30 08:43:41;;;;;;;4.78;3.25;;;;;;;47.39;14.35;95003.72;5061701;28;20245;-64
2023/06/30 08:46:09;;;;;;;5.20;3.15;;;;;;;47.37;13.74;95000.50;5062129;28;20197;-64
2023/06/30 08:48:37;;;;;;;2.80;2.60;;;;;;;48.15;13.65;94992.19;5063057;28;20285;-66
2023/06/30 08:51:06;;;;;;;5.95;2.88;;;;;;;48.92;13.37;94998.16;5064066;28;20296;-65
2023/06/30 08:53:33;;;;;;;5.28;3.20;;;;;;;49.68;13.09;94987.97;5059916;28;20229;-64
2023/06/30 08:56:00;;;;;;;10.20;9.23;;;;;;;50.05;12.65;94992.41;5060355;28;20221;-63
2023/06/30 08:58:27;;;;;;;41.90;37.38;;;;;;;50.52;12.95;94979.50;5062943;28;20648;-63
2023/06/30 09:00:55;;;;;;;39.45;35.13;;;;;;;51.00;12.23;94990.59;5062684;28;20699;-64
2023/06/30 09:03:22;;;;;;;18.30;15.32;;;;;;;51.31;12.31;94982.56;5060003;28;20229;-63
2023/06/30 09:05:51;;;;;;;21.73;10.50;;;;;;;51.31;12.36;94990.69;5059649;28;20194;-64
2023/06/30 09:08:23;;;;;;;12.48;9.65;;;;;;;51.29;11.81;94982.06;5065087;28;20714;-64
2023/06/30 09:10:50;;;;;;;7.70;6.85;;;;;;;51.16;11.94;94985.63;5064140;28;20205;-64
2023/06/30 09:13:19;;;;;;;11.32;10.43;;;;;;;50.96;11.75;94982.31;5064149;28;20328;-63
2023/06/30 09:15:46;;;;;;;8.27;7.53;;;;;;;50.77;11.87;94978.94;5063795;28;20229;-64
2023/06/30 09:18:13;;;;;;;13.35;9.75;;;;;;;50.93;12.60;94977.53;5066339;28;20197;-64
2023/06/30 09:20:42;;;;;;;10.40;9.35;;;;;;;50.09;12.41;94985.28;5062376;28;20190;-64
2023/06/30 09:23:09;;;;;;;4.18;3.92;;;;;;;49.00;12.57;94981.28;5064521;28;20266;-64
2023/06/30 09:25:40;;;;;;;3.97;3.60;;;;;;;47.70;13.90;94986.19;5057993;28;20305;-64
2023/06/30 09:28:11;;;;;;;6.32;5.68;;;;;;;46.45;14.67;94978.84;5063919;28;20194;-64
2023/06/30 09:30:41;;;;;;;4.53;3.97;;;;;;;45.60;15.01;94973.50;5061327;28;20634;-63
2023/06/30 09:33:08;;;;;;;3.13;2.92;;;;;;;44.04;15.02;94982.97;5061194;28;20619;-64
2023/06/30 09:35:39;;;;;;;3.88;3.58;;;;;;;43.38;16.31;94977.22;5060688;28;20214;-66
2023/06/30 09:38:10;;;;;;;6.28;3.67;;;;;;;43.04;17.42;94974.81;5062046;28;20324;-64
2023/06/30 09:40:37;;;;;;;6.95;5.38;;;;;;;42.66;17.23;94961.63;5061756;28;20826;-64
2023/06/30 09:43:07;;;;;;;4.78;4.20;;;;;;;41.49;18.48;94968.22;5062618;28;21471;-63
2023/06/30 09:45:34;;;;;;;4.60;4.30;;;;;;;40.54;19.58;94963.75;5061272;28;20594;-63
2023/06/30 09:48:01;;;;;;;3.85;3.55;;;;;;;39.26;20.38;94954.19;5063147;28;20637;-63
2023/06/30 09:50:30;;;;;;;3.40;3.30;;;;;;;37.93;22.26;94961.63;5062494;28;20684;-64
2023/06/30 09:52:57;;;;;;;3.58;3.28;;;;;;;36.74;23.70;94957.47;5058453;28;20226;-63
2023/06/30 09:55:24;;;;;;;4.72;3.35;;;;;;;35.47;24.56;94958.22;5062864;28;20711;-63
2023/06/30 09:57:53;;;;;;;3.38;3.17;;;;;;;34.28;26.38;94952.06;5062953;28;21018;-64
2023/06/30 10:00:23;;;;;;;3.58;3.38;;;;;;;33.44;27.92;94955.75;5062860;28;20267;-64
2023/06/30 10:03:02;;;;;;;3.15;2.95;;;;;;;32.71;28.79;94950.94;5061468;28;20209;-65
2023/06/30 10:05:29;;;;;;;3.67;3.38;;;;;;;32.18;30.04;94953.03;5063654;28;20611;-65
2023/06/30 10:07:55;;;;;;;7.40;3.58;;;;;;;31.73;30.38;94949.72;5062768;28;20290;-63
2023/06/30 10:10:22;;;;;;;3.58;3.28;;;;;;;31.34;31.36;94950.00;5064174;28;20206;-62
2023/06/30 10:12:49;;;;;;;3.67;3.35;;;;;;;30.87;32.64;94949.47;5060989;28;20291;-64
2023/06/30 10:15:16;;;;;;;6.32;3.47;;;;;;;30.52;33.48;94945.63;5061969;28;20274;-64
2023/06/30 10:17:46;;;;;;;5.88;3.65;;;;;;;30.23;34.30;94948.97;5063709;28;20627;-64
2023/06/30 10:20:13;;;;;;;4.13;3.92;;;;;;;30.01;34.55;94946.16;5063343;28;20554;-63
2023/06/30 10:22:40;;;;;;;6.38;3.42;;;;;;;29.85;34.94;94935.75;5063510;28;20198;-64
2023/06/30 10:25:09;;;;;;;4.30;3.90;;;;;;;29.68;35.06;94940.25;5063611;28;20229;-63
2023/06/30 10:27:36;;;;;;;6.50;4.32;;;;;;;29.59;35.65;94936.03;5062258;28;20978;-62
2023/06/30 10:30:03;;;;;;;4.35;3.35;;;;;;;29.44;35.86;94929.91;5064898;28;20615;-63
2023/06/30 10:32:30;;;;;;;4.03;3.72;;;;;;;29.25;36.51;94922.38;5061177;28;20207;-64
2023/06/30 10:34:59;;;;;;;4.90;3.63;;;;;;;28.98;36.93;94915.75;5062520;28;20678;-64
2023/06/30 10:37:26;;;;;;;4.15;3.95;;;;;;;28.69;37.23;94918.91;5062192;28;20246;-63
2023/06/30 10:39:54;;;;;;;4.13;3.83;;;;;;;28.55;38.45;94914.31;5062450;28;20234;-64
2023/06/30 10:42:21;;;;;;;4.68;4.38;;;;;;;28.37;39.47;94915.31;5062624;28;20301;-64
2023/06/30 10:44:48;;;;;;;4.22;3.92;;;;;;;28.25;39.29;94903.53;5061964;28;20202;-64
2023/06/30 10:47:22;;;;;;;7.70;4.75;;;;;;;28.03;41.40;94885.88;5063230;28;20670;-65
2023/06/30 10:49:53;;;;;;;7.95;4.65;;;;;;;27.80;40.66;94875.22;5062832;28;20204;-64
2023/06/30 10:52:27;;;;;;;6.00;5.60;;;;;;;27.81;40.93;94897.75;5064257;28;20214;-62
2023/06/30 10:54:55;;;;;;;5.53;5.07;;;;;;;27.67;41.18;94887.94;5060798;28;20332;-63
2023/06/30 10:57:24;;;;;;;5.65;4.38;;;;;;;27.60;42.97;94900.81;5065831;28;20283;-64
2023/06/30 11:00:05;;;;;;;5.43;4.97;;;;;;;27.46;41.53;94893.56;5062632;28;20291;-63
2023/06/30 11:02:34;;;;;;;9.65;5.22;;;;;;;27.37;41.41;94890.09;5066739;28;20618;-63
2023/06/30 11:05:19;;;;;;;4.38;4.00;;;;;;;27.25;41.53;94887.91;5064615;28;20206;-63
2023/06/30 11:07:49;;;;;;;5.22;4.72;;;;;;;27.08;41.16;94863.56;5065387;28;20285;-62
2023/06/30 11:10:34;;;;;;;7.85;4.45;;;;;;;27.12;41.84;94890.97;5066238;28;20281;-63
2023/06/30 11:13:02;;;;;;;7.50;4.57;;;;;;;27.10;41.85;94890.31;5067445;28;20205;-64
2023/06/30 11:15:44;;;;;;;5.25;4.18;;;;;;;27.00;43.10;94860.91;5064047;28;20238;-63
2023/06/30 11:18:12;;;;;;;5.22;4.78;;;;;;;27.12;43.29;94875.31;5065808;28;20191;-65
2023/06/30 11:20:39;;;;;;;6.40;4.30;;;;;;;26.94;42.94;94853.72;5067106;28;20264;-64
2023/06/30 11:23:18;;;;;;;5.32;5.00;;;;;;;27.03;42.97;94877.06;5069363;28;20252;-63
2023/06/30 11:25:45;;;;;;;7.03;4.57;;;;;;;26.97;42.92;94869.91;5066335;28;20222;-64
2023/06/30 11:28:12;;;;;;;5.43;4.93;;;;;;;26.87;43.58;94858.72;5068272;28;20668;-62
2023/06/30 11:30:39;;;;;;;5.93;4.38;;;;;;;26.71;43.36;94859.47;5065456;28;20268;-64
2023/06/30 11:33:07;;;;;;;7.55;4.10;;;;;;;26.60;42.40;94833.63;5068772;28;20199;-63
2023/06/30 11:35:34;;;;;;;5.22;4.63;;;;;;;26.75;43.62;94850.34;5062720;28;20195;-64
2023/06/30 11:38:01;;;;;;;4.95;4.65;;;;;;;26.78;43.19;94844.00;5067892;28;20676;-63